createdAt,value
2019-03-24T00:01:04.575Z,7.70
2019-03-24T00:03:34.102Z,7.70
2019-03-24T00:06:01.742Z,7.60
2019-03-24T00:08:29.367Z,7.70
2019-03-24T00:10:57.019Z,7.70
2019-03-24T00:13:26.598Z,7.60
2019-03-24T00:15:54.233Z,7.50
2019-03-24T00:18:21.862Z,7.50
2019-03-24T00:20:49.503Z,7.40
2019-03-24T00:23:19.087Z,7.40
2019-03-24T00:25:46.730Z,7.40
2019-03-24T00:28:14.378Z,7.30
2019-03-24T00:30:42.083Z,7.30
2019-03-24T00:33:12.814Z,7.20
2019-03-24T00:35:40.438Z,7.20
2019-03-24T00:38:08.082Z,7.10
2019-03-24T00:40:35.710Z,7.10
2019-03-24T00:43:03.350Z,7.00
2019-03-24T00:45:36.801Z,7.00
2019-03-24T00:48:00.339Z,7.00
2019-03-24T00:50:27.974Z,7.00
2019-03-24T00:52:55.619Z,7.00
2019-03-24T00:55:23.246Z,7.00
2019-03-24T00:57:50.907Z,6.90
2019-03-24T01:00:20.122Z,6.80
2019-03-24T01:02:47.768Z,6.80
2019-03-24T01:05:15.401Z,6.90
2019-03-24T01:07:43.039Z,6.80
2019-03-24T01:10:11.641Z,6.70
2019-03-24T01:12:42.850Z,6.80
2019-03-24T01:15:10.624Z,6.60
2019-03-24T01:17:38.261Z,6.50
2019-03-24T01:20:06.547Z,6.50
2019-03-24T01:22:45.499Z,6.40
2019-03-24T01:25:13.205Z,6.40
2019-03-24T01:27:40.842Z,6.40
2019-03-24T01:30:08.838Z,6.40
2019-03-24T01:32:37.478Z,6.40
2019-03-24T01:35:05.878Z,6.40
2019-03-24T01:37:33.514Z,6.40
2019-03-24T01:40:01.137Z,6.20
2019-03-24T01:42:28.778Z,6.10
2019-03-24T01:44:56.409Z,6.10
2019-03-24T01:47:24.066Z,6.00
2019-03-24T01:49:51.696Z,5.90
2019-03-24T01:52:22.375Z,5.90
2019-03-24T01:54:50.016Z,5.80
2019-03-24T01:57:17.643Z,5.80
2019-03-24T01:59:45.290Z,5.70
2019-03-24T02:02:26.830Z,5.60
2019-03-24T02:04:54.467Z,5.50
2019-03-24T02:07:22.085Z,5.40
2019-03-24T02:09:49.729Z,5.30
2019-03-24T02:12:17.359Z,5.30
2019-03-24T02:14:44.993Z,5.30
2019-03-24T02:17:12.622Z,5.30
2019-03-24T02:19:40.270Z,5.20
2019-03-24T02:22:07.891Z,5.20
2019-03-24T02:24:35.529Z,5.30
2019-03-24T02:27:03.163Z,5.10
2019-03-24T02:29:30.866Z,5.10
2019-03-24T02:31:58.503Z,5.10
2019-03-24T02:34:26.145Z,5.10
2019-03-24T02:36:53.762Z,5.00
2019-03-24T02:39:21.414Z,4.90
2019-03-24T02:41:49.044Z,4.90
2019-03-24T02:44:16.679Z,4.90
2019-03-24T02:46:44.314Z,4.90
2019-03-24T02:49:11.954Z,4.90
2019-03-24T02:51:39.586Z,4.80
2019-03-24T02:54:07.220Z,4.80
2019-03-24T02:56:34.863Z,4.80
2019-03-24T02:59:02.499Z,4.70
2019-03-24T03:01:30.132Z,4.70
2019-03-24T03:04:07.571Z,4.70
2019-03-24T03:06:35.209Z,4.90
2019-03-24T03:09:02.848Z,4.80
2019-03-24T03:11:30.488Z,4.80
2019-03-24T03:14:03.934Z,4.80
2019-03-24T03:16:38.210Z,4.70
2019-03-24T03:19:00.924Z,4.60
2019-03-24T03:21:28.566Z,4.50
2019-03-24T03:23:59.395Z,4.50
2019-03-24T03:26:27.040Z,4.60
2019-03-24T03:28:54.669Z,4.50
2019-03-24T03:31:22.317Z,4.50
2019-03-24T03:33:53.157Z,4.40
2019-03-24T03:36:20.851Z,4.30
2019-03-24T03:38:48.500Z,4.00
2019-03-24T03:41:16.148Z,3.80
2019-03-24T03:43:43.784Z,3.80
2019-03-24T03:46:11.429Z,3.80
2019-03-24T03:48:39.055Z,3.80
2019-03-24T03:51:06.700Z,3.90
2019-03-24T03:53:34.356Z,3.80
2019-03-24T03:56:02.007Z,3.50
2019-03-24T03:58:29.627Z,3.40
2019-03-24T04:00:57.654Z,3.40
2019-03-24T04:03:25.282Z,3.30
2019-03-24T04:05:52.915Z,3.20
2019-03-24T04:08:20.557Z,3.20
2019-03-24T04:10:48.185Z,3.30
2019-03-24T04:13:15.833Z,3.40
2019-03-24T04:15:43.521Z,3.40
2019-03-24T04:18:11.167Z,3.40
2019-03-24T04:20:38.803Z,3.50
2019-03-24T04:23:19.576Z,3.60
2019-03-24T04:25:47.207Z,3.60
2019-03-24T04:28:14.837Z,3.60
2019-03-24T04:30:42.475Z,3.50
2019-03-24T04:33:10.133Z,3.40
2019-03-24T04:35:37.754Z,3.40
2019-03-24T04:38:05.399Z,3.40
2019-03-24T04:40:33.027Z,3.20
2019-03-24T04:43:00.667Z,3.10
2019-03-24T04:45:28.286Z,3.10
2019-03-24T04:47:55.929Z,2.90
2019-03-24T04:50:23.558Z,2.70
2019-03-24T04:52:51.226Z,2.70
2019-03-24T04:55:18.922Z,2.80
2019-03-24T04:57:46.565Z,2.70
2019-03-24T05:00:14.363Z,2.90
2019-03-24T05:02:42.984Z,2.90
2019-03-24T05:05:10.682Z,3.00
2019-03-24T05:07:38.392Z,3.20
2019-03-24T05:10:06.491Z,3.20
2019-03-24T05:12:35.058Z,3.20
2019-03-24T05:15:02.695Z,3.00
2019-03-24T05:17:30.328Z,2.90
2019-03-24T05:19:57.956Z,2.80
2019-03-24T05:22:28.773Z,2.60
2019-03-24T05:24:56.405Z,2.60
2019-03-24T05:27:24.030Z,2.60
2019-03-24T05:29:51.717Z,2.60
2019-03-24T05:32:19.346Z,2.60
2019-03-24T05:34:46.986Z,2.70
2019-03-24T05:37:14.611Z,2.90
2019-03-24T05:39:42.256Z,2.90
2019-03-24T05:42:15.995Z,2.80
2019-03-24T05:44:43.633Z,2.90
2019-03-24T05:47:11.254Z,2.90
2019-03-24T05:49:38.902Z,2.70
2019-03-24T05:52:06.535Z,2.70
2019-03-24T05:54:34.172Z,2.60
2019-03-24T05:57:01.800Z,2.60
2019-03-24T05:59:29.439Z,2.70
2019-03-24T06:01:57.066Z,2.70
2019-03-24T06:04:24.706Z,2.80
2019-03-24T06:06:52.335Z,2.80
2019-03-24T06:09:19.980Z,3.00
2019-03-24T06:11:47.602Z,3.30
2019-03-24T06:14:15.254Z,3.50
2019-03-24T06:16:42.874Z,3.60
2019-03-24T06:19:10.526Z,3.60
2019-03-24T06:21:38.146Z,3.50
2019-03-24T06:24:06.767Z,3.50
2019-03-24T06:26:34.395Z,3.70
2019-03-24T06:29:02.035Z,3.80
2019-03-24T06:31:29.658Z,3.90
2019-03-24T06:33:57.312Z,4.00
2019-03-24T06:36:24.939Z,4.00
2019-03-24T06:38:52.570Z,4.00
2019-03-24T06:41:20.220Z,4.20
2019-03-24T06:43:47.850Z,4.20
2019-03-24T06:46:15.494Z,4.30
2019-03-24T06:48:43.121Z,4.30
2019-03-24T06:51:10.761Z,4.50
2019-03-24T06:53:38.395Z,4.60
2019-03-24T06:56:06.034Z,4.70
2019-03-24T06:58:33.662Z,4.80
2019-03-24T07:01:01.302Z,5.00
2019-03-24T07:03:28.938Z,5.00
2019-03-24T07:05:56.579Z,5.20
2019-03-24T07:08:24.205Z,5.30
2019-03-24T07:10:51.846Z,5.40
2019-03-24T07:13:19.513Z,5.50
2019-03-24T07:15:47.242Z,5.50
2019-03-24T07:18:14.906Z,5.60
2019-03-24T07:20:42.552Z,5.50
2019-03-24T07:23:10.174Z,5.50
2019-03-24T07:25:37.814Z,5.70
2019-03-24T07:28:05.442Z,5.80
2019-03-24T07:30:33.080Z,5.80
2019-03-24T07:33:00.708Z,6.00
2019-03-24T07:35:28.346Z,6.20
2019-03-24T07:40:23.350Z,6.60
2019-03-24T07:42:50.982Z,6.70
2019-03-24T07:45:18.601Z,6.80
2019-03-24T07:47:46.242Z,6.90
2019-03-24T07:50:14.062Z,7.10
2019-03-24T07:52:41.706Z,7.20
2019-03-24T07:55:09.334Z,7.40
2019-03-24T07:57:36.987Z,7.40
2019-03-24T08:00:05.878Z,7.60
2019-03-24T08:02:51.042Z,7.60
2019-03-24T08:07:40.909Z,7.80
2019-03-24T08:10:08.712Z,7.80
2019-03-24T08:12:43.451Z,7.90
2019-03-24T08:17:38.550Z,8.40
2019-03-24T08:25:00.898Z,9.30
2019-03-24T08:29:55.910Z,10.40
2019-03-24T08:32:29.338Z,10.40
2019-03-24T08:34:56.971Z,10.30
2019-03-24T08:37:24.625Z,10.60
2019-03-24T08:39:52.275Z,10.70
2019-03-24T08:42:19.910Z,11.00
2019-03-24T08:44:47.538Z,11.40
2019-03-24T08:47:15.189Z,11.50
2019-03-24T08:49:42.829Z,11.00
2019-03-24T08:52:11.447Z,11.80
2019-03-24T08:54:39.086Z,11.80
2019-03-24T08:57:06.733Z,12.00
2019-03-24T08:59:34.363Z,11.60
2019-03-24T09:02:02.011Z,11.50
2019-03-24T09:04:29.685Z,12.00
2019-03-24T09:06:57.378Z,12.00
2019-03-24T09:09:25.027Z,11.90
2019-03-24T09:11:52.656Z,12.20
2019-03-24T09:14:20.309Z,12.40
2019-03-24T09:16:47.946Z,12.60
2019-03-24T09:19:15.595Z,12.90
2019-03-24T09:21:43.248Z,12.90
2019-03-24T09:24:10.959Z,13.00
2019-03-24T09:26:38.600Z,12.30
2019-03-24T09:29:06.247Z,12.50
2019-03-24T09:34:04.419Z,12.90
2019-03-24T09:36:32.046Z,12.70
2019-03-24T09:38:59.690Z,13.50
2019-03-24T09:41:27.331Z,14.10
2019-03-24T09:43:54.973Z,12.70
2019-03-24T09:46:22.621Z,13.10
2019-03-24T09:48:50.271Z,13.30
2019-03-24T09:51:17.907Z,13.80
2019-03-24T09:53:45.555Z,13.80
2019-03-24T09:56:13.186Z,13.70
2019-03-24T10:01:08.202Z,14.70
2019-03-24T10:03:42.023Z,14.80
2019-03-24T10:06:09.659Z,14.60
2019-03-24T10:08:46.771Z,14.20
2019-03-24T10:11:06.658Z,13.80
2019-03-24T10:13:34.386Z,13.90
2019-03-24T10:16:02.020Z,13.80
2019-03-24T10:18:29.662Z,13.70
2019-03-24T10:20:57.301Z,13.90
2019-03-24T10:23:24.951Z,14.00
2019-03-24T10:25:52.628Z,14.50
2019-03-24T10:28:20.299Z,14.40
2019-03-24T10:30:48.132Z,13.90
2019-03-24T10:33:16.722Z,13.90
2019-03-24T10:35:44.370Z,13.80
2019-03-24T10:38:12.007Z,13.80
2019-03-24T10:40:39.654Z,14.30
2019-03-24T10:43:07.298Z,14.20
2019-03-24T10:45:34.935Z,14.60
2019-03-24T10:48:02.589Z,13.90
2019-03-24T10:50:30.238Z,14.10
2019-03-24T10:52:57.870Z,14.30
2019-03-24T10:55:25.514Z,14.80
2019-03-24T10:57:53.194Z,15.30
2019-03-24T11:00:22.370Z,15.00
2019-03-24T11:02:50.003Z,14.90
2019-03-24T11:05:17.656Z,15.40
2019-03-24T11:07:45.279Z,15.50
2019-03-24T11:10:12.916Z,15.70
2019-03-24T11:12:40.554Z,15.80
2019-03-24T11:15:08.966Z,14.60
2019-03-24T11:17:36.605Z,14.40
2019-03-24T11:20:06.011Z,14.30
2019-03-24T11:22:33.646Z,14.50
2019-03-24T11:25:01.291Z,15.10
2019-03-24T11:27:28.922Z,15.40
2019-03-24T11:29:56.566Z,15.40
2019-03-24T11:32:28.196Z,15.10
2019-03-24T11:34:55.847Z,14.90
2019-03-24T11:37:23.482Z,15.30
2019-03-24T11:39:51.110Z,14.50
2019-03-24T11:42:18.755Z,14.80
2019-03-24T11:44:46.395Z,14.80
2019-03-24T11:47:14.035Z,14.90
2019-03-24T11:49:45.879Z,15.30
2019-03-24T11:52:11.035Z,15.50
2019-03-24T11:54:38.671Z,15.50
2019-03-24T11:57:06.311Z,15.80
2019-03-24T11:59:33.948Z,15.60
2019-03-24T12:02:01.590Z,15.40
2019-03-24T12:04:29.256Z,15.60
2019-03-24T12:06:56.980Z,15.70
2019-03-24T12:09:24.606Z,15.00
2019-03-24T12:11:52.253Z,15.00
2019-03-24T12:14:19.886Z,15.00
2019-03-24T12:16:47.534Z,15.80
2019-03-24T12:19:15.169Z,16.20
2019-03-24T12:24:10.174Z,17.20
2019-03-24T12:31:32.622Z,18.60
2019-03-24T12:34:00.261Z,18.70
2019-03-24T12:36:27.903Z,18.20
2019-03-24T12:38:55.535Z,18.00
2019-03-24T12:41:23.170Z,17.40
2019-03-24T12:43:50.899Z,17.20
2019-03-24T12:46:18.534Z,16.90
2019-03-24T12:48:46.178Z,16.90
2019-03-24T12:51:13.814Z,16.80
2019-03-24T12:53:41.475Z,16.70
2019-03-24T12:56:09.098Z,16.60
2019-03-24T12:58:36.748Z,16.20
2019-03-24T13:01:04.446Z,16.20
2019-03-24T13:03:32.089Z,16.50
2019-03-24T13:05:59.726Z,16.80
2019-03-24T13:08:27.388Z,17.10
2019-03-24T13:10:55.150Z,17.20
2019-03-24T13:13:22.817Z,17.10
2019-03-24T13:15:50.459Z,17.00
2019-03-24T13:18:18.121Z,16.80
2019-03-24T13:20:45.753Z,16.30
2019-03-24T13:23:19.212Z,16.30
2019-03-24T13:25:46.850Z,16.10
2019-03-24T13:28:14.486Z,15.90
2019-03-24T13:30:42.114Z,15.60
2019-03-24T13:33:09.770Z,15.30
2019-03-24T13:35:37.399Z,15.20
2019-03-24T13:38:05.043Z,15.00
2019-03-24T13:40:32.746Z,15.00
2019-03-24T13:43:00.389Z,15.00
2019-03-24T13:45:28.052Z,15.20
2019-03-24T13:47:55.705Z,15.40
2019-03-24T13:50:31.338Z,15.90
2019-03-24T13:52:52.711Z,16.40
2019-03-24T13:55:20.401Z,16.60
2019-03-24T13:57:48.102Z,16.60
2019-03-24T14:00:17.006Z,16.40
2019-03-24T14:02:44.654Z,16.20
2019-03-24T14:05:12.372Z,15.80
2019-03-24T14:07:40.025Z,15.40
2019-03-24T14:10:07.768Z,15.20
2019-03-24T14:12:35.411Z,15.00
2019-03-24T14:15:03.846Z,14.70
2019-03-24T14:17:31.577Z,14.60
2019-03-24T14:19:59.252Z,14.50
2019-03-24T14:22:26.907Z,14.40
2019-03-24T14:24:54.628Z,14.50
2019-03-24T14:27:22.287Z,14.40
2019-03-24T14:29:49.948Z,14.30
2019-03-24T14:32:17.587Z,14.30
2019-03-24T14:34:45.234Z,14.20
2019-03-24T14:37:12.878Z,14.10
2019-03-24T14:39:40.535Z,14.00
2019-03-24T14:42:08.167Z,14.10
2019-03-24T14:44:35.819Z,14.10
2019-03-24T14:47:03.519Z,14.10
2019-03-24T14:49:31.189Z,14.20
2019-03-24T14:51:58.881Z,14.10
2019-03-24T14:54:27.076Z,14.00
2019-03-24T14:56:54.782Z,14.00
2019-03-24T14:59:22.512Z,13.90
2019-03-24T15:01:50.141Z,13.80
2019-03-24T15:04:17.793Z,13.80
2019-03-24T20:54:26.146Z,7.10
2019-03-24T20:56:53.795Z,7.10
2019-03-24T20:59:21.431Z,7.10
2019-03-24T21:01:49.084Z,7.10
2019-03-24T21:04:16.706Z,7.10
2019-03-24T21:06:44.363Z,6.90
2019-03-24T21:09:11.991Z,6.80
2019-03-24T21:11:39.633Z,6.70
2019-03-24T21:14:07.258Z,6.60
2019-03-24T21:16:34.899Z,6.60
2019-03-24T21:21:36.313Z,6.50
2019-03-24T21:24:04.130Z,6.30
2019-03-24T21:26:31.778Z,6.30
2019-03-24T21:28:59.409Z,6.10
2019-03-24T21:31:27.059Z,6.20
2019-03-24T21:33:54.697Z,6.30
2019-03-24T21:36:22.354Z,6.40
2019-03-24T21:38:56.846Z,6.50
2019-03-24T21:41:24.502Z,6.50
2019-03-24T21:43:52.199Z,6.50
2019-03-24T21:46:19.823Z,6.40
2019-03-24T21:48:50.678Z,6.30
2019-03-24T21:51:18.326Z,6.20
2019-03-24T21:53:45.991Z,6.20
2019-03-24T21:56:14.306Z,6.20
2019-03-24T21:58:42.962Z,6.00
2019-03-24T22:01:10.592Z,5.90
2019-03-24T22:03:38.230Z,5.90
2019-03-24T22:06:05.879Z,5.90
2019-03-24T22:08:33.514Z,5.90
2019-03-24T22:11:01.142Z,5.80
2019-03-24T22:13:28.783Z,5.70
2019-03-24T22:15:56.416Z,5.70
2019-03-24T22:18:24.060Z,5.70
2019-03-24T22:20:51.691Z,5.70
2019-03-24T22:23:19.339Z,5.80
2019-03-24T22:25:46.966Z,5.60
2019-03-24T22:28:14.611Z,5.70
2019-03-24T22:30:42.243Z,5.70
2019-03-24T22:33:09.888Z,5.70
2019-03-24T22:35:37.534Z,5.80
2019-03-24T22:38:05.175Z,5.80
2019-03-24T22:40:32.802Z,5.90
2019-03-24T22:43:00.447Z,5.90
2019-03-24T22:45:28.083Z,5.90
2019-03-24T22:47:55.717Z,6.00
2019-03-24T22:50:23.346Z,6.00
2019-03-24T22:52:50.991Z,5.90
2019-03-24T22:55:18.619Z,6.00
2019-03-24T22:57:55.253Z,5.90
2019-03-24T23:00:24.507Z,5.90
2019-03-24T23:02:52.213Z,5.90
2019-03-24T23:05:19.848Z,5.90
2019-03-24T23:07:47.489Z,5.90
2019-03-24T23:10:15.115Z,5.80
2019-03-24T23:12:42.759Z,5.80
2019-03-24T23:15:10.458Z,5.70
2019-03-24T23:17:38.166Z,5.80
2019-03-24T23:20:05.966Z,5.80
2019-03-24T23:22:33.594Z,5.70
2019-03-24T23:25:01.239Z,5.60
2019-03-24T23:27:28.882Z,5.60
2019-03-24T23:29:56.542Z,5.60
2019-03-24T23:32:24.171Z,5.60
2019-03-24T23:34:51.819Z,5.50
2019-03-24T23:37:19.446Z,5.40
2019-03-24T23:39:47.086Z,5.50
2019-03-24T23:42:14.786Z,5.50
2019-03-24T23:44:42.438Z,5.50
2019-03-24T23:49:49.547Z,5.20
2019-03-24T23:52:17.176Z,5.20
2019-03-24T23:54:44.815Z,5.30
2019-03-24T23:57:12.443Z,5.20
